createdAt,value
2018-11-25T00:00:39.467Z,181.13
2018-11-25T00:03:48.690Z,191.10
2018-11-25T00:06:57.789Z,197.00
2018-11-25T00:10:07.303Z,183.73
2018-11-25T00:13:16.600Z,208.87
2018-11-25T00:16:25.927Z,188.67
2018-11-25T00:19:35.019Z,200.23
2018-11-25T00:22:44.345Z,200.17
2018-11-25T00:25:53.476Z,193.80
2018-11-25T00:29:02.764Z,209.47
2018-11-25T00:32:11.946Z,195.63
2018-11-25T00:35:21.124Z,200.57
2018-11-25T00:38:30.460Z,183.00
2018-11-25T00:41:39.593Z,176.70
2018-11-25T00:44:48.675Z,180.90
2018-11-25T00:47:57.733Z,178.00
2018-11-25T00:51:07.069Z,154.80
2018-11-25T00:54:16.175Z,171.40
2018-11-25T00:57:25.225Z,174.30
2018-11-25T01:00:34.337Z,176.47
2018-11-25T01:03:43.492Z,174.67
2018-11-25T01:06:53.396Z,182.63
2018-11-25T01:10:02.559Z,177.37
2018-11-25T01:13:11.733Z,185.97
2018-11-25T01:16:20.913Z,180.40
2018-11-25T01:19:30.135Z,179.53
2018-11-25T01:22:39.278Z,181.37
2018-11-25T01:25:48.352Z,201.53
2018-11-25T01:28:57.444Z,191.27
2018-11-25T01:32:06.648Z,202.60
2018-11-25T01:35:17.044Z,195.53
2018-11-25T01:38:31.050Z,201.13
2018-11-25T01:41:40.816Z,189.63
2018-11-25T01:44:50.021Z,199.53
2018-11-25T01:47:59.318Z,205.60
2018-11-25T01:51:09.180Z,200.77
2018-11-25T01:54:18.424Z,199.07
2018-11-25T01:57:27.656Z,195.10
2018-11-25T02:00:38.146Z,181.17
2018-11-25T02:03:47.308Z,177.93
2018-11-25T02:06:56.494Z,171.53
2018-11-25T02:10:11.388Z,174.20
2018-11-25T02:13:20.547Z,158.53
2018-11-25T02:16:29.850Z,170.50
2018-11-25T02:19:39.380Z,160.57
2018-11-25T02:22:48.821Z,159.03
2018-11-25T02:25:57.963Z,156.07
2018-11-25T02:29:07.060Z,149.27
2018-11-25T02:32:16.229Z,154.37
2018-11-25T02:35:25.412Z,150.43
2018-11-25T02:38:34.567Z,159.40
2018-11-25T02:41:43.851Z,139.17
2018-11-25T02:44:53.099Z,137.27
2018-11-25T02:48:02.272Z,136.37
2018-11-25T02:51:12.691Z,142.53
2018-11-25T02:54:23.407Z,133.20
2018-11-25T02:57:34.341Z,148.53
2018-11-25T03:00:44.988Z,137.90
2018-11-25T03:03:55.479Z,145.10
2018-11-25T03:07:16.378Z,140.13
2018-11-25T03:10:31.249Z,138.83
2018-11-25T03:13:41.218Z,133.93
2018-11-25T03:16:51.239Z,130.50
2018-11-25T03:20:02.756Z,142.10
2018-11-25T03:23:12.193Z,132.30
2018-11-25T03:26:21.654Z,135.27
2018-11-25T03:29:30.927Z,130.77
2018-11-25T03:32:40.053Z,135.10
2018-11-25T03:35:49.244Z,138.87
2018-11-25T03:38:58.525Z,130.40
2018-11-25T03:42:07.726Z,130.97
2018-11-25T03:45:19.092Z,129.73
2018-11-25T03:48:28.920Z,127.27
2018-11-25T03:51:38.208Z,124.90
2018-11-25T03:54:47.396Z,120.30
2018-11-25T03:57:56.679Z,123.90
2018-11-25T04:01:06.019Z,123.10
2018-11-25T04:04:16.717Z,116.47
2018-11-25T04:07:26.739Z,120.37
2018-11-25T04:10:38.267Z,119.73
2018-11-25T04:13:49.493Z,120.07
2018-11-25T04:16:58.707Z,118.33
2018-11-25T04:20:10.617Z,116.60
2018-11-25T04:23:19.847Z,117.40
2018-11-25T04:26:28.986Z,122.50
2018-11-25T04:29:38.182Z,117.00
2018-11-25T04:32:54.366Z,116.43
2018-11-25T04:36:03.646Z,116.80
2018-11-25T04:39:12.864Z,116.90
2018-11-25T04:42:22.056Z,127.73
2018-11-25T04:45:31.442Z,117.43
2018-11-25T04:48:43.537Z,119.70
2018-11-25T04:51:52.846Z,118.60
2018-11-25T04:55:02.444Z,128.90
2018-11-25T04:58:15.017Z,128.67
2018-11-25T05:01:24.329Z,131.20
2018-11-25T05:04:33.619Z,125.90
2018-11-25T05:07:42.899Z,126.63
2018-11-25T05:10:52.003Z,127.23
2018-11-25T05:14:01.352Z,130.40
2018-11-25T05:17:10.434Z,122.73
2018-11-25T05:20:19.973Z,122.07
2018-11-25T05:23:29.082Z,127.70
2018-11-25T05:26:38.383Z,119.40
2018-11-25T05:29:47.466Z,128.47
2018-11-25T05:32:56.531Z,124.43
2018-11-25T05:36:10.066Z,127.17
2018-11-25T05:39:21.111Z,122.70
2018-11-25T05:42:32.764Z,114.67
2018-11-25T05:45:44.381Z,123.33
2018-11-25T05:48:56.171Z,126.70
2018-11-25T05:52:07.697Z,118.83
2018-11-25T05:55:16.751Z,113.33
2018-11-25T05:58:25.823Z,117.77
2018-11-25T06:01:34.992Z,122.40
2018-11-25T06:04:44.168Z,120.43
2018-11-25T06:07:53.460Z,125.77
2018-11-25T06:11:02.627Z,121.87
2018-11-25T06:14:11.842Z,117.93
2018-11-25T06:17:20.975Z,112.07
2018-11-25T06:20:38.110Z,117.70
2018-11-25T06:23:49.374Z,115.10
2018-11-25T06:27:00.765Z,117.83
2018-11-25T06:30:17.203Z,127.77
2018-11-25T06:33:26.570Z,123.87
2018-11-25T06:36:38.609Z,133.17
2018-11-25T06:39:50.383Z,137.47
2018-11-25T06:42:59.547Z,132.57
2018-11-25T06:46:10.380Z,122.33
2018-11-25T06:49:19.471Z,115.03
2018-11-25T06:52:28.635Z,123.60
2018-11-25T06:55:38.282Z,119.70
2018-11-25T06:58:47.515Z,117.80
2018-11-25T07:01:56.828Z,123.87
2018-11-25T07:05:06.178Z,117.80
2018-11-25T07:08:15.337Z,117.70
2018-11-25T07:11:26.118Z,116.97
2018-11-25T07:14:37.919Z,115.67
2018-11-25T07:17:48.622Z,114.93
2018-11-25T07:21:00.278Z,119.37
2018-11-25T07:24:11.258Z,109.80
2018-11-25T07:27:22.117Z,120.33
2018-11-25T07:30:33.216Z,118.30
2018-11-25T07:33:45.405Z,115.23
2018-11-25T07:36:58.502Z,111.03
2018-11-25T07:40:09.459Z,111.23
2018-11-25T07:43:20.556Z,118.43
2018-11-25T07:46:31.496Z,104.53
2018-11-25T07:49:41.136Z,107.37
2018-11-25T07:52:51.204Z,107.47
2018-11-25T07:56:00.348Z,103.63
2018-11-25T07:59:09.665Z,107.13
2018-11-25T08:02:18.751Z,97.20
2018-11-25T08:05:28.030Z,109.50
2018-11-25T08:08:37.170Z,106.47
2018-11-25T08:11:46.345Z,104.67
2018-11-25T08:14:55.719Z,101.90
2018-11-25T08:18:04.952Z,99.10
2018-11-25T08:21:14.129Z,100.70
2018-11-25T08:24:23.197Z,104.93
2018-11-25T08:27:32.555Z,95.83
2018-11-25T08:30:41.607Z,97.20
2018-11-25T08:33:50.791Z,101.93
2018-11-25T08:36:59.859Z,101.90
2018-11-25T08:40:17.039Z,96.33
2018-11-25T08:43:26.155Z,97.57
2018-11-25T08:46:35.362Z,98.87
2018-11-25T08:49:44.655Z,95.97
2018-11-25T08:52:53.938Z,81.77
2018-11-25T08:56:03.153Z,96.67
2018-11-25T08:59:12.461Z,95.33
2018-11-25T09:02:21.690Z,95.63
2018-11-25T09:05:30.916Z,101.33
2018-11-25T09:08:40.011Z,91.83
2018-11-25T09:11:49.120Z,97.40
2018-11-25T09:14:58.296Z,93.27
2018-11-25T09:18:07.457Z,106.97
2018-11-25T09:21:16.748Z,117.70
2018-11-25T09:24:26.135Z,132.57
2018-11-25T09:27:35.331Z,122.87
2018-11-25T09:30:44.404Z,119.13
2018-11-25T09:33:53.495Z,113.53
2018-11-25T09:37:02.590Z,109.33
2018-11-25T09:40:12.932Z,137.67
2018-11-25T09:43:22.156Z,122.03
2018-11-25T09:46:31.412Z,96.80
2018-11-25T09:49:40.575Z,124.53
2018-11-25T09:52:49.734Z,128.57
2018-11-25T09:55:58.987Z,122.73
2018-11-25T09:59:08.189Z,97.83
2018-11-25T10:02:17.285Z,105.07
2018-11-25T10:05:26.477Z,113.60
2018-11-25T10:08:35.617Z,108.27
2018-11-25T10:11:44.827Z,93.67
2018-11-25T10:14:54.043Z,89.53
2018-11-25T10:18:03.294Z,91.03
2018-11-25T10:21:12.412Z,80.57
2018-11-25T10:24:21.694Z,78.60
2018-11-25T10:27:30.990Z,79.23
2018-11-25T10:30:40.271Z,80.10
2018-11-25T10:33:49.466Z,75.63
2018-11-25T10:36:58.780Z,88.87
2018-11-25T10:40:11.859Z,87.40
2018-11-25T10:43:20.935Z,89.33
2018-11-25T10:46:30.099Z,88.20
2018-11-25T10:49:39.186Z,103.73
2018-11-25T10:52:48.448Z,100.20
2018-11-25T10:55:57.683Z,85.67
2018-11-25T10:59:06.883Z,79.83
2018-11-25T11:02:19.289Z,83.63
2018-11-25T11:05:33.904Z,83.33
2018-11-25T11:08:43.200Z,84.53
2018-11-25T11:11:52.459Z,87.60
2018-11-25T11:15:01.550Z,89.43
2018-11-25T11:18:10.602Z,86.13
2018-11-25T11:21:19.839Z,88.93
2018-11-25T11:24:28.930Z,94.73
2018-11-25T11:27:38.107Z,89.77
2018-11-25T11:30:47.440Z,98.60
2018-11-25T11:33:56.743Z,123.80
2018-11-25T11:37:06.000Z,123.40
2018-11-25T11:40:15.333Z,128.23
2018-11-25T11:43:24.531Z,142.87
2018-11-25T11:46:33.815Z,101.27
2018-11-25T11:49:43.003Z,106.70
2018-11-25T11:52:52.062Z,95.53
2018-11-25T11:56:01.380Z,93.53
2018-11-25T11:59:10.554Z,91.40
2018-11-25T12:02:19.755Z,97.80
2018-11-25T12:05:28.843Z,89.97
2018-11-25T12:08:38.110Z,99.53
2018-11-25T12:11:47.214Z,96.03
2018-11-25T12:14:56.445Z,100.50
2018-11-25T12:18:06.535Z,91.83
2018-11-25T12:21:15.748Z,91.93
2018-11-25T12:24:24.823Z,81.63
2018-11-25T12:27:34.146Z,84.10
2018-11-25T12:30:43.286Z,87.43
2018-11-25T12:33:52.392Z,81.57
2018-11-25T12:37:01.458Z,83.87
2018-11-25T12:40:12.647Z,82.77
2018-11-25T12:43:21.738Z,87.90
2018-11-25T12:46:31.059Z,84.90
2018-11-25T12:49:40.240Z,89.60
2018-11-25T12:52:49.597Z,92.83
2018-11-25T12:55:58.671Z,87.70
2018-11-25T12:59:07.954Z,91.17
2018-11-25T13:02:17.213Z,96.17
2018-11-25T13:05:26.279Z,98.43
2018-11-25T13:08:35.378Z,87.30
2018-11-25T13:11:44.600Z,94.30
2018-11-25T13:14:53.774Z,95.90
2018-11-25T13:18:02.951Z,92.83
2018-11-25T13:21:12.043Z,96.30
2018-11-25T13:24:21.218Z,92.93
2018-11-25T13:27:30.517Z,98.43
2018-11-25T13:30:39.609Z,108.63
2018-11-25T13:33:48.687Z,94.70
2018-11-25T13:36:58.008Z,101.60
2018-11-25T13:40:12.939Z,93.33
2018-11-25T13:43:22.159Z,99.40
2018-11-25T13:46:31.464Z,100.63
2018-11-25T13:49:40.689Z,104.40
2018-11-25T13:52:49.841Z,101.87
2018-11-25T13:55:59.158Z,108.97
2018-11-25T13:59:08.415Z,110.53
2018-11-25T14:02:17.628Z,111.23
2018-11-25T14:05:26.811Z,104.00
2018-11-25T14:08:36.110Z,104.70
2018-11-25T14:11:45.448Z,104.03
2018-11-25T14:14:54.755Z,109.07
2018-11-25T14:18:03.907Z,122.77
2018-11-25T14:21:13.143Z,109.70
2018-11-25T14:24:22.319Z,103.10
2018-11-25T14:27:31.446Z,111.17
2018-11-25T14:30:40.776Z,111.60
2018-11-25T14:33:50.075Z,115.63
2018-11-25T14:36:59.420Z,122.90
2018-11-25T14:40:11.927Z,123.17
2018-11-25T14:43:21.212Z,121.83
2018-11-25T14:46:30.488Z,131.40
2018-11-25T14:49:39.573Z,137.37
2018-11-25T14:52:50.867Z,129.93
2018-11-25T14:56:00.068Z,139.60
2018-11-25T14:59:09.388Z,135.67
2018-11-25T15:02:18.583Z,137.27
2018-11-25T15:05:30.269Z,121.90
2018-11-25T15:08:39.344Z,141.37
2018-11-25T15:11:48.472Z,143.03
2018-11-25T15:14:57.792Z,139.10
2018-11-25T15:18:07.614Z,139.63
2018-11-25T15:21:16.725Z,137.73
2018-11-25T15:24:25.981Z,143.07
2018-11-25T15:27:35.270Z,137.07
2018-11-25T15:30:44.347Z,137.90
2018-11-25T15:33:53.416Z,151.87
2018-11-25T15:37:02.745Z,146.43
2018-11-25T15:40:13.616Z,143.87
2018-11-25T15:43:22.822Z,149.47
2018-11-25T15:46:31.911Z,143.10
2018-11-25T15:49:41.099Z,147.27
2018-11-25T15:52:50.219Z,139.10
2018-11-25T15:56:01.502Z,137.10
2018-11-25T15:59:10.579Z,143.77
2018-11-25T16:02:19.663Z,139.77
2018-11-25T16:05:30.677Z,152.30
2018-11-25T16:08:39.962Z,164.23
2018-11-25T16:11:49.050Z,141.90
2018-11-25T16:14:58.238Z,138.73
2018-11-25T16:18:07.495Z,122.17
2018-11-25T16:21:16.644Z,142.60
2018-11-25T16:24:25.723Z,157.77
2018-11-25T16:27:34.932Z,145.37
2018-11-25T16:30:44.011Z,148.70
2018-11-25T16:33:53.467Z,147.73
2018-11-25T16:37:02.699Z,159.33
2018-11-25T16:40:14.259Z,155.47
2018-11-25T16:43:23.510Z,146.07
2018-11-25T16:46:32.649Z,126.00
2018-11-25T16:49:41.812Z,149.60
2018-11-25T16:52:50.879Z,131.70
2018-11-25T16:56:00.161Z,131.70
2018-11-25T16:59:09.327Z,138.70
2018-11-25T17:02:18.565Z,138.23
2018-11-25T17:05:29.495Z,138.83
2018-11-25T17:08:40.352Z,145.47
2018-11-25T17:11:49.677Z,135.33
2018-11-25T17:14:58.888Z,149.27
2018-11-25T17:18:08.003Z,129.13
2018-11-25T17:21:17.298Z,140.07
2018-11-25T17:24:26.513Z,146.50
2018-11-25T17:27:35.720Z,143.33
2018-11-25T17:30:44.811Z,154.70
2018-11-25T17:33:53.961Z,148.80
2018-11-25T17:37:03.244Z,157.07
2018-11-25T17:40:12.523Z,152.00
2018-11-25T17:43:22.902Z,164.60
2018-11-25T17:46:32.177Z,164.57
2018-11-25T17:49:41.310Z,187.73
2018-11-25T17:52:50.609Z,219.33
2018-11-25T17:55:59.766Z,186.33
2018-11-25T17:59:08.863Z,173.43
2018-11-25T18:02:18.167Z,200.00
2018-11-25T18:05:27.311Z,197.40
2018-11-25T18:08:36.591Z,209.40
2018-11-25T18:11:45.704Z,207.33
2018-11-25T18:14:55.039Z,209.37
2018-11-25T18:18:11.328Z,212.47
2018-11-25T18:21:25.105Z,216.43
2018-11-25T18:24:34.157Z,213.13
2018-11-25T18:27:43.463Z,166.60
2018-11-25T18:30:53.544Z,194.47
2018-11-25T18:34:02.686Z,196.43
2018-11-25T18:37:11.999Z,194.60
2018-11-25T18:40:21.334Z,164.07
2018-11-25T18:43:30.572Z,202.57
2018-11-25T18:46:46.486Z,191.20
2018-11-25T18:49:49.030Z,197.57
2018-11-25T18:52:58.091Z,216.47
2018-11-25T18:56:07.162Z,190.70
2018-11-25T18:59:16.496Z,174.83
2018-11-25T19:02:33.607Z,168.53
2018-11-25T19:05:42.684Z,155.77
2018-11-25T19:08:51.883Z,149.40
2018-11-25T19:12:01.074Z,164.47
2018-11-25T19:15:11.415Z,166.17
2018-11-25T19:18:20.523Z,171.67
2018-11-25T19:21:29.738Z,165.47
2018-11-25T19:24:38.906Z,167.13
2018-11-25T19:27:48.355Z,172.70
2018-11-25T19:30:57.491Z,137.10
2018-11-25T19:34:06.623Z,146.90
2018-11-25T19:37:16.020Z,140.80
2018-11-25T19:40:26.088Z,135.73
2018-11-25T19:43:35.351Z,145.93
2018-11-25T19:46:44.355Z,142.67
2018-11-25T19:49:53.631Z,144.33
2018-11-25T19:53:02.835Z,157.27
2018-11-25T19:56:12.219Z,149.47
2018-11-25T19:59:21.345Z,160.13
2018-11-25T20:02:30.630Z,143.60
2018-11-25T20:05:40.999Z,149.37
2018-11-25T20:08:50.320Z,126.37
2018-11-25T20:11:59.533Z,125.67
2018-11-25T20:15:17.698Z,128.50
2018-11-25T20:18:26.958Z,119.00
2018-11-25T20:21:41.590Z,133.77
2018-11-25T20:24:50.658Z,135.83
2018-11-25T20:28:06.313Z,112.23
2018-11-25T20:31:15.408Z,112.73
2018-11-25T20:34:24.706Z,111.03
2018-11-25T20:37:33.990Z,110.00
2018-11-25T20:40:43.246Z,84.53
2018-11-25T20:43:52.620Z,95.53
2018-11-25T20:47:06.638Z,95.87
2018-11-25T20:50:15.838Z,81.67
2018-11-25T20:53:30.349Z,87.03
2018-11-25T20:56:39.815Z,82.33
2018-11-25T20:59:49.155Z,91.33
2018-11-25T21:02:58.345Z,85.20
2018-11-25T21:06:07.439Z,86.23
2018-11-25T21:09:16.800Z,92.47
2018-11-25T21:12:26.185Z,91.30
2018-11-25T21:15:35.383Z,88.93
2018-11-25T21:18:44.469Z,85.47
2018-11-25T21:21:53.758Z,91.90
2018-11-25T21:25:02.804Z,91.90
2018-11-25T21:28:11.875Z,96.80
2018-11-25T21:31:21.094Z,84.37
2018-11-25T21:34:30.155Z,91.13
2018-11-25T21:37:39.361Z,88.63
2018-11-25T21:40:48.571Z,89.50
2018-11-25T21:43:57.958Z,87.03
2018-11-25T21:47:07.081Z,85.90
2018-11-25T21:50:18.219Z,79.17
2018-11-25T21:53:28.349Z,78.47
2018-11-25T21:56:37.450Z,76.70
2018-11-25T21:59:46.509Z,82.77
2018-11-25T22:02:55.622Z,75.10
2018-11-25T22:06:04.802Z,83.43
2018-11-25T22:09:14.015Z,81.30
2018-11-25T22:12:23.211Z,76.90
2018-11-25T22:15:32.522Z,56.77
2018-11-25T22:18:41.580Z,75.60
2018-11-25T22:21:50.795Z,63.80
2018-11-25T22:25:00.097Z,62.47
2018-11-25T22:28:09.316Z,55.07
2018-11-25T22:31:18.411Z,67.43
2018-11-25T22:34:27.595Z,58.90
2018-11-25T22:37:36.811Z,66.90
2018-11-25T22:40:45.999Z,69.57
2018-11-25T22:43:55.184Z,57.43
2018-11-25T22:47:04.378Z,66.50
2018-11-25T22:50:19.350Z,69.27
2018-11-25T22:53:28.460Z,62.37
2018-11-25T22:56:37.691Z,62.30
2018-11-25T22:59:46.811Z,66.63
2018-11-25T23:02:56.060Z,63.00
2018-11-25T23:06:16.757Z,66.47
2018-11-25T23:09:25.927Z,64.03
2018-11-25T23:12:34.989Z,65.73
2018-11-25T23:15:44.109Z,69.17
2018-11-25T23:18:53.360Z,63.57
2018-11-25T23:22:02.419Z,67.10
2018-11-25T23:25:11.515Z,66.23
2018-11-25T23:28:20.562Z,60.50
2018-11-25T23:31:29.687Z,65.53
2018-11-25T23:34:38.903Z,76.70
2018-11-25T23:37:48.042Z,80.13
2018-11-25T23:40:57.364Z,61.47
2018-11-25T23:44:07.409Z,68.20
2018-11-25T23:47:16.510Z,68.17
2018-11-25T23:50:25.587Z,60.50
2018-11-25T23:53:34.650Z,66.20
2018-11-25T23:56:43.779Z,65.43
2018-11-25T23:59:53.099Z,67.80
